sensor_id;sensor_type;location;lat;lon;timestamp;P1;durP1;ratioP1;P2;durP2;ratioP2
18190;SDS011;47004;51.366;12.348;2024-01-16T00:00:17;5.50;;;2.30;;
18190;SDS011;47004;51.366;12.348;2024-01-16T00:02:19;5.87;;;2.50;;
18190;SDS011;47004;51.366;12.348;2024-01-16T00:04:21;5.97;;;2.30;;
18190;SDS011;47004;51.366;12.348;2024-01-16T00:06:23;8.00;;;2.20;;
18190;SDS011;47004;51.366;12.348;2024-01-16T00:08:25;5.80;;;2.57;;
18190;SDS011;47004;51.366;12.348;2024-01-16T00:10:27;10.23;;;2.40;;
18190;SDS011;47004;51.366;12.348;2024-01-16T00:12:29;9.40;;;2.63;;
18190;SDS011;47004;51.366;12.348;2024-01-16T00:14:35;6.27;;;2.80;;
18190;SDS011;47004;51.366;12.348;2024-01-16T00:16:41;5.67;;;2.60;;
18190;SDS011;47004;51.366;12.348;2024-01-16T00:18:44;6.23;;;2.97;;
18190;SDS011;47004;51.366;12.348;2024-01-16T00:20:46;8.47;;;3.40;;
18190;SDS011;47004;51.366;12.348;2024-01-16T00:22:46;8.07;;;2.80;;
18190;SDS011;47004;51.366;12.348;2024-01-16T00:24:48;8.23;;;2.90;;
18190;SDS011;47004;51.366;12.348;2024-01-16T00:26:50;7.50;;;3.03;;
18190;SDS011;47004;51.366;12.348;2024-01-16T00:28:52;8.93;;;2.83;;
18190;SDS011;47004;51.366;12.348;2024-01-16T00:30:55;7.50;;;2.97;;
18190;SDS011;47004;51.366;12.348;2024-01-16T00:32:56;4.70;;;2.93;;
18190;SDS011;47004;51.366;12.348;2024-01-16T00:34:58;8.23;;;2.60;;
18190;SDS011;47004;51.366;12.348;2024-01-16T00:37:00;9.23;;;3.00;;
18190;SDS011;47004;51.366;12.348;2024-01-16T00:39:01;6.50;;;2.80;;
18190;SDS011;47004;51.366;12.348;2024-01-16T00:41:03;9.33;;;2.73;;
18190;SDS011;47004;51.366;12.348;2024-01-16T00:43:06;7.23;;;2.40;;
18190;SDS011;47004;51.366;12.348;2024-01-16T00:45:08;6.23;;;2.47;;
18190;SDS011;47004;51.366;12.348;2024-01-16T00:47:12;4.37;;;2.17;;
18190;SDS011;47004;51.366;12.348;2024-01-16T00:49:13;5.73;;;2.27;;
18190;SDS011;47004;51.366;12.348;2024-01-16T00:51:14;8.03;;;2.27;;
18190;SDS011;47004;51.366;12.348;2024-01-16T00:53:16;3.90;;;2.00;;
18190;SDS011;47004;51.366;12.348;2024-01-16T00:55:18;9.43;;;2.30;;
18190;SDS011;47004;51.366;12.348;2024-01-16T00:57:20;6.97;;;2.17;;
18190;SDS011;47004;51.366;12.348;2024-01-16T00:59:22;5.13;;;2.20;;
18190;SDS011;47004;51.366;12.348;2024-01-16T01:01:24;6.07;;;1.93;;
18190;SDS011;47004;51.366;12.348;2024-01-16T01:03:27;2.43;;;1.47;;
18190;SDS011;47004;51.366;12.348;2024-01-16T01:05:28;5.73;;;1.70;;
18190;SDS011;47004;51.366;12.348;2024-01-16T01:07:30;3.67;;;1.90;;
18190;SDS011;47004;51.366;12.348;2024-01-16T01:09:32;6.23;;;2.00;;
18190;SDS011;47004;51.366;12.348;2024-01-16T01:11:33;3.77;;;2.30;;
18190;SDS011;47004;51.366;12.348;2024-01-16T01:13:35;7.00;;;2.23;;
18190;SDS011;47004;51.366;12.348;2024-01-16T01:15:40;3.37;;;1.80;;
18190;SDS011;47004;51.366;12.348;2024-01-16T01:17:41;5.20;;;1.73;;
18190;SDS011;47004;51.366;12.348;2024-01-16T01:19:44;5.03;;;1.90;;
18190;SDS011;47004;51.366;12.348;2024-01-16T01:21:47;4.70;;;1.93;;
18190;SDS011;47004;51.366;12.348;2024-01-16T01:23:49;4.27;;;1.80;;
18190;SDS011;47004;51.366;12.348;2024-01-16T01:25:51;8.27;;;1.87;;
18190;SDS011;47004;51.366;12.348;2024-01-16T01:27:53;8.17;;;1.67;;
18190;SDS011;47004;51.366;12.348;2024-01-16T01:29:55;5.03;;;1.50;;
18190;SDS011;47004;51.366;12.348;2024-01-16T01:31:58;3.33;;;1.47;;
18190;SDS011;47004;51.366;12.348;2024-01-16T01:33:59;5.70;;;1.67;;
18190;SDS011;47004;51.366;12.348;2024-01-16T01:36:02;2.63;;;1.53;;
18190;SDS011;47004;51.366;12.348;2024-01-16T01:38:04;4.30;;;1.60;;
18190;SDS011;47004;51.366;12.348;2024-01-16T01:40:11;6.30;;;1.40;;
18190;SDS011;47004;51.366;12.348;2024-01-16T01:42:15;3.03;;;1.20;;
18190;SDS011;47004;51.366;12.348;2024-01-16T01:44:17;3.93;;;1.30;;
18190;SDS011;47004;51.366;12.348;2024-01-16T01:46:19;2.77;;;1.17;;
18190;SDS011;47004;51.366;12.348;2024-01-16T01:48:22;1.93;;;1.00;;
18190;SDS011;47004;51.366;12.348;2024-01-16T01:50:23;1.80;;;1.10;;
18190;SDS011;47004;51.366;12.348;2024-01-16T01:52:26;3.20;;;1.20;;
18190;SDS011;47004;51.366;12.348;2024-01-16T01:54:28;2.93;;;1.20;;
18190;SDS011;47004;51.366;12.348;2024-01-16T01:56:37;3.93;;;1.00;;
18190;SDS011;47004;51.366;12.348;2024-01-16T01:58:40;2.43;;;0.97;;
18190;SDS011;47004;51.366;12.348;2024-01-16T02:00:44;6.50;;;1.10;;
18190;SDS011;47004;51.366;12.348;2024-01-16T02:02:49;3.43;;;1.43;;
18190;SDS011;47004;51.366;12.348;2024-01-16T02:04:51;0.90;;;0.73;;
18190;SDS011;47004;51.366;12.348;2024-01-16T02:06:52;5.73;;;1.23;;
18190;SDS011;47004;51.366;12.348;2024-01-16T02:09:01;3.20;;;1.10;;
18190;SDS011;47004;51.366;12.348;2024-01-16T02:11:07;2.67;;;1.10;;
18190;SDS011;47004;51.366;12.348;2024-01-16T02:13:10;3.27;;;1.53;;
18190;SDS011;47004;51.366;12.348;2024-01-16T02:15:12;2.83;;;1.23;;
18190;SDS011;47004;51.366;12.348;2024-01-16T02:17:15;3.53;;;1.10;;
18190;SDS011;47004;51.366;12.348;2024-01-16T02:19:16;5.00;;;1.00;;
18190;SDS011;47004;51.366;12.348;2024-01-16T02:21:18;1.90;;;1.00;;
18190;SDS011;47004;51.366;12.348;2024-01-16T02:23:25;1.83;;;1.00;;
18190;SDS011;47004;51.366;12.348;2024-01-16T02:25:28;5.23;;;1.23;;
18190;SDS011;47004;51.366;12.348;2024-01-16T02:27:30;2.07;;;1.20;;
18190;SDS011;47004;51.366;12.348;2024-01-16T02:29:32;4.03;;;1.20;;
18190;SDS011;47004;51.366;12.348;2024-01-16T02:31:35;5.23;;;1.30;;
18190;SDS011;47004;51.366;12.348;2024-01-16T02:33:37;4.37;;;1.20;;
18190;SDS011;47004;51.366;12.348;2024-01-16T02:35:38;5.33;;;1.20;;
18190;SDS011;47004;51.366;12.348;2024-01-16T02:37:40;7.20;;;1.10;;
18190;SDS011;47004;51.366;12.348;2024-01-16T02:39:43;2.13;;;1.10;;
18190;SDS011;47004;51.366;12.348;2024-01-16T02:41:48;3.07;;;0.90;;
18190;SDS011;47004;51.366;12.348;2024-01-16T02:43:50;2.63;;;0.90;;
18190;SDS011;47004;51.366;12.348;2024-01-16T02:45:52;6.73;;;1.07;;
18190;SDS011;47004;51.366;12.348;2024-01-16T02:47:54;3.67;;;1.10;;
18190;SDS011;47004;51.366;12.348;2024-01-16T02:49:55;3.20;;;1.03;;
18190;SDS011;47004;51.366;12.348;2024-01-16T02:51:58;3.57;;;1.33;;
18190;SDS011;47004;51.366;12.348;2024-01-16T02:54:00;6.70;;;1.50;;
18190;SDS011;47004;51.366;12.348;2024-01-16T02:56:03;2.77;;;0.80;;
18190;SDS011;47004;51.366;12.348;2024-01-16T02:58:06;2.33;;;1.00;;
18190;SDS011;47004;51.366;12.348;2024-01-16T03:00:08;3.10;;;1.10;;
18190;SDS011;47004;51.366;12.348;2024-01-16T03:02:11;6.67;;;0.80;;
18190;SDS011;47004;51.366;12.348;2024-01-16T03:04:13;3.23;;;1.13;;
18190;SDS011;47004;51.366;12.348;2024-01-16T03:06:21;2.77;;;0.90;;
18190;SDS011;47004;51.366;12.348;2024-01-16T03:08:24;7.67;;;1.23;;
18190;SDS011;47004;51.366;12.348;2024-01-16T03:10:26;7.87;;;1.50;;
18190;SDS011;47004;51.366;12.348;2024-01-16T03:12:29;5.73;;;1.27;;
18190;SDS011;47004;51.366;12.348;2024-01-16T03:14:31;5.80;;;1.27;;
18190;SDS011;47004;51.366;12.348;2024-01-16T03:16:34;4.27;;;1.53;;
18190;SDS011;47004;51.366;12.348;2024-01-16T03:18:36;6.97;;;1.10;;
18190;SDS011;47004;51.366;12.348;2024-01-16T03:20:37;2.07;;;1.20;;
18190;SDS011;47004;51.366;12.348;2024-01-16T03:22:39;5.37;;;1.50;;
18190;SDS011;47004;51.366;12.348;2024-01-16T03:24:41;2.20;;;0.97;;
18190;SDS011;47004;51.366;12.348;2024-01-16T03:26:43;3.87;;;1.10;;
18190;SDS011;47004;51.366;12.348;2024-01-16T03:28:46;4.87;;;1.30;;
18190;SDS011;47004;51.366;12.348;2024-01-16T03:30:50;5.37;;;1.70;;
18190;SDS011;47004;51.366;12.348;2024-01-16T03:32:54;3.47;;;1.13;;
18190;SDS011;47004;51.366;12.348;2024-01-16T03:34:57;5.87;;;1.33;;
18190;SDS011;47004;51.366;12.348;2024-01-16T03:36:59;5.93;;;1.17;;
18190;SDS011;47004;51.366;12.348;2024-01-16T03:39:01;3.30;;;1.53;;
18190;SDS011;47004;51.366;12.348;2024-01-16T03:41:03;5.67;;;1.70;;
18190;SDS011;47004;51.366;12.348;2024-01-16T03:43:06;5.80;;;1.60;;
18190;SDS011;47004;51.366;12.348;2024-01-16T03:45:10;4.43;;;1.30;;
18190;SDS011;47004;51.366;12.348;2024-01-16T03:47:12;3.93;;;1.10;;
18190;SDS011;47004;51.366;12.348;2024-01-16T03:49:13;4.93;;;1.43;;
18190;SDS011;47004;51.366;12.348;2024-01-16T03:51:15;3.93;;;1.50;;
18190;SDS011;47004;51.366;12.348;2024-01-16T03:53:18;5.50;;;1.50;;
18190;SDS011;47004;51.366;12.348;2024-01-16T03:55:20;3.40;;;1.17;;
18190;SDS011;47004;51.366;12.348;2024-01-16T03:57:21;3.17;;;1.40;;
18190;SDS011;47004;51.366;12.348;2024-01-16T03:59:24;4.13;;;1.30;;
18190;SDS011;47004;51.366;12.348;2024-01-16T04:01:31;7.77;;;1.30;;
18190;SDS011;47004;51.366;12.348;2024-01-16T04:03:33;4.47;;;1.23;;
18190;SDS011;47004;51.366;12.348;2024-01-16T04:05:36;6.43;;;1.50;;
18190;SDS011;47004;51.366;12.348;2024-01-16T04:07:38;3.60;;;1.20;;
18190;SDS011;47004;51.366;12.348;2024-01-16T04:09:41;2.43;;;1.10;;
18190;SDS011;47004;51.366;12.348;2024-01-16T04:11:43;6.50;;;1.37;;
18190;SDS011;47004;51.366;12.348;2024-01-16T04:13:47;3.40;;;1.10;;
18190;SDS011;47004;51.366;12.348;2024-01-16T04:15:49;5.13;;;1.30;;
18190;SDS011;47004;51.366;12.348;2024-01-16T04:17:54;6.37;;;1.50;;
18190;SDS011;47004;51.366;12.348;2024-01-16T04:19:55;3.37;;;1.37;;
18190;SDS011;47004;51.366;12.348;2024-01-16T04:21:57;3.20;;;1.40;;
18190;SDS011;47004;51.366;12.348;2024-01-16T04:23:58;2.63;;;1.30;;
18190;SDS011;47004;51.366;12.348;2024-01-16T04:26:00;2.43;;;1.20;;
18190;SDS011;47004;51.366;12.348;2024-01-16T04:28:02;2.50;;;1.20;;
18190;SDS011;47004;51.366;12.348;2024-01-16T04:30:04;4.43;;;1.57;;
18190;SDS011;47004;51.366;12.348;2024-01-16T04:32:07;4.63;;;1.37;;
18190;SDS011;47004;51.366;12.348;2024-01-16T04:34:10;2.23;;;1.00;;
18190;SDS011;47004;51.366;12.348;2024-01-16T04:36:11;3.60;;;1.27;;
18190;SDS011;47004;51.366;12.348;2024-01-16T04:38:13;10.63;;;2.17;;
18190;SDS011;47004;51.366;12.348;2024-01-16T04:40:15;5.37;;;1.50;;
18190;SDS011;47004;51.366;12.348;2024-01-16T04:42:17;4.13;;;1.70;;
18190;SDS011;47004;51.366;12.348;2024-01-16T04:44:19;7.27;;;1.40;;
18190;SDS011;47004;51.366;12.348;2024-01-16T04:46:21;3.57;;;1.30;;
18190;SDS011;47004;51.366;12.348;2024-01-16T04:48:23;4.87;;;1.40;;
18190;SDS011;47004;51.366;12.348;2024-01-16T04:50:27;3.23;;;1.40;;
18190;SDS011;47004;51.366;12.348;2024-01-16T04:52:31;5.73;;;1.60;;
18190;SDS011;47004;51.366;12.348;2024-01-16T04:54:34;6.87;;;2.00;;
18190;SDS011;47004;51.366;12.348;2024-01-16T04:56:36;5.23;;;1.33;;
18190;SDS011;47004;51.366;12.348;2024-01-16T04:58:38;5.27;;;1.60;;
18190;SDS011;47004;51.366;12.348;2024-01-16T05:00:40;3.80;;;2.03;;
18190;SDS011;47004;51.366;12.348;2024-01-16T05:02:42;2.67;;;1.73;;
18190;SDS011;47004;51.366;12.348;2024-01-16T05:04:43;4.50;;;1.87;;
18190;SDS011;47004;51.366;12.348;2024-01-16T05:06:49;4.60;;;1.60;;
18190;SDS011;47004;51.366;12.348;2024-01-16T05:08:50;3.07;;;1.63;;
18190;SDS011;47004;51.366;12.348;2024-01-16T05:10:52;5.93;;;1.83;;
18190;SDS011;47004;51.366;12.348;2024-01-16T05:12:54;3.87;;;1.77;;
18190;SDS011;47004;51.366;12.348;2024-01-16T05:14:56;5.37;;;1.73;;
18190;SDS011;47004;51.366;12.348;2024-01-16T05:16:58;3.90;;;1.87;;
18190;SDS011;47004;51.366;12.348;2024-01-16T05:19:00;3.33;;;1.60;;
18190;SDS011;47004;51.366;12.348;2024-01-16T05:21:03;5.77;;;1.70;;
18190;SDS011;47004;51.366;12.348;2024-01-16T05:23:08;5.97;;;1.80;;
18190;SDS011;47004;51.366;12.348;2024-01-16T05:25:10;3.67;;;1.93;;
18190;SDS011;47004;51.366;12.348;2024-01-16T05:27:12;5.53;;;1.83;;
18190;SDS011;47004;51.366;12.348;2024-01-16T05:29:14;5.00;;;1.90;;
18190;SDS011;47004;51.366;12.348;2024-01-16T05:31:16;6.73;;;1.93;;
18190;SDS011;47004;51.366;12.348;2024-01-16T05:33:19;6.80;;;2.03;;
18190;SDS011;47004;51.366;12.348;2024-01-16T05:35:21;8.33;;;1.97;;
18190;SDS011;47004;51.366;12.348;2024-01-16T05:37:22;7.90;;;2.60;;
18190;SDS011;47004;51.366;12.348;2024-01-16T05:39:29;8.43;;;2.00;;
18190;SDS011;47004;51.366;12.348;2024-01-16T05:41:32;5.27;;;2.10;;
18190;SDS011;47004;51.366;12.348;2024-01-16T05:43:34;4.80;;;1.93;;
18190;SDS011;47004;51.366;12.348;2024-01-16T05:45:38;6.70;;;2.43;;
18190;SDS011;47004;51.366;12.348;2024-01-16T05:47:40;6.63;;;2.23;;
18190;SDS011;47004;51.366;12.348;2024-01-16T05:49:43;8.57;;;2.20;;
18190;SDS011;47004;51.366;12.348;2024-01-16T05:51:45;8.93;;;2.30;;
18190;SDS011;47004;51.366;12.348;2024-01-16T05:53:46;8.40;;;2.40;;
18190;SDS011;47004;51.366;12.348;2024-01-16T05:55:50;6.93;;;2.47;;
18190;SDS011;47004;51.366;12.348;2024-01-16T05:57:56;6.37;;;2.43;;
18190;SDS011;47004;51.366;12.348;2024-01-16T05:59:59;7.13;;;2.40;;
18190;SDS011;47004;51.366;12.348;2024-01-16T06:02:03;7.93;;;3.37;;
18190;SDS011;47004;51.366;12.348;2024-01-16T06:04:05;6.67;;;2.80;;
18190;SDS011;47004;51.366;12.348;2024-01-16T06:06:07;13.57;;;3.20;;
18190;SDS011;47004;51.366;12.348;2024-01-16T06:08:09;9.17;;;3.43;;
18190;SDS011;47004;51.366;12.348;2024-01-16T06:10:11;7.13;;;2.93;;
18190;SDS011;47004;51.366;12.348;2024-01-16T06:12:17;7.33;;;2.50;;
18190;SDS011;47004;51.366;12.348;2024-01-16T06:14:19;4.77;;;2.50;;
18190;SDS011;47004;51.366;12.348;2024-01-16T06:16:21;8.90;;;3.40;;
18190;SDS011;47004;51.366;12.348;2024-01-16T06:18:25;9.13;;;2.77;;
18190;SDS011;47004;51.366;12.348;2024-01-16T06:20:26;8.20;;;2.90;;
18190;SDS011;47004;51.366;12.348;2024-01-16T06:22:29;7.07;;;2.30;;
18190;SDS011;47004;51.366;12.348;2024-01-16T06:24:31;9.80;;;3.57;;
18190;SDS011;47004;51.366;12.348;2024-01-16T06:26:36;9.23;;;3.40;;
18190;SDS011;47004;51.366;12.348;2024-01-16T06:28:40;6.57;;;3.20;;
18190;SDS011;47004;51.366;12.348;2024-01-16T06:30:43;5.00;;;2.50;;
18190;SDS011;47004;51.366;12.348;2024-01-16T06:32:45;6.03;;;2.73;;
18190;SDS011;47004;51.366;12.348;2024-01-16T06:34:47;8.33;;;2.00;;
18190;SDS011;47004;51.366;12.348;2024-01-16T06:36:49;6.13;;;1.83;;
18190;SDS011;47004;51.366;12.348;2024-01-16T06:38:51;7.20;;;2.17;;
18190;SDS011;47004;51.366;12.348;2024-01-16T06:40:53;7.03;;;2.67;;
18190;SDS011;47004;51.366;12.348;2024-01-16T06:42:55;8.63;;;1.90;;
18190;SDS011;47004;51.366;12.348;2024-01-16T06:44:57;5.87;;;1.90;;
18190;SDS011;47004;51.366;12.348;2024-01-16T06:46:59;9.47;;;2.10;;
18190;SDS011;47004;51.366;12.348;2024-01-16T06:49:01;7.13;;;1.83;;
18190;SDS011;47004;51.366;12.348;2024-01-16T06:51:02;5.87;;;2.23;;
18190;SDS011;47004;51.366;12.348;2024-01-16T06:53:04;3.60;;;2.00;;
18190;SDS011;47004;51.366;12.348;2024-01-16T06:55:06;4.73;;;2.17;;
18190;SDS011;47004;51.366;12.348;2024-01-16T06:57:08;6.93;;;2.20;;
18190;SDS011;47004;51.366;12.348;2024-01-16T06:59:12;9.67;;;2.30;;
18190;SDS011;47004;51.366;12.348;2024-01-16T07:01:16;6.10;;;2.33;;
18190;SDS011;47004;51.366;12.348;2024-01-16T07:03:18;5.13;;;2.63;;
18190;SDS011;47004;51.366;12.348;2024-01-16T07:05:21;6.93;;;2.43;;
18190;SDS011;47004;51.366;12.348;2024-01-16T07:07:22;4.67;;;1.87;;
18190;SDS011;47004;51.366;12.348;2024-01-16T07:09:24;7.37;;;2.13;;
18190;SDS011;47004;51.366;12.348;2024-01-16T07:11:27;5.53;;;2.60;;
18190;SDS011;47004;51.366;12.348;2024-01-16T07:13:29;6.57;;;2.33;;
18190;SDS011;47004;51.366;12.348;2024-01-16T07:15:31;9.93;;;2.60;;
18190;SDS011;47004;51.366;12.348;2024-01-16T07:17:34;4.47;;;2.17;;
18190;SDS011;47004;51.366;12.348;2024-01-16T07:19:36;7.63;;;2.30;;
18190;SDS011;47004;51.366;12.348;2024-01-16T07:21:38;8.17;;;2.33;;
18190;SDS011;47004;51.366;12.348;2024-01-16T07:23:40;7.37;;;2.53;;
18190;SDS011;47004;51.366;12.348;2024-01-16T07:25:42;10.13;;;2.60;;
18190;SDS011;47004;51.366;12.348;2024-01-16T07:27:44;7.57;;;2.23;;
18190;SDS011;47004;51.366;12.348;2024-01-16T07:29:48;7.07;;;2.57;;
18190;SDS011;47004;51.366;12.348;2024-01-16T07:31:50;9.13;;;2.67;;
18190;SDS011;47004;51.366;12.348;2024-01-16T07:33:54;6.33;;;2.13;;
18190;SDS011;47004;51.366;12.348;2024-01-16T07:35:56;7.70;;;2.33;;
18190;SDS011;47004;51.366;12.348;2024-01-16T07:37:59;6.90;;;2.33;;
18190;SDS011;47004;51.366;12.348;2024-01-16T07:40:01;8.53;;;2.20;;
18190;SDS011;47004;51.366;12.348;2024-01-16T07:42:06;6.10;;;2.73;;
18190;SDS011;47004;51.366;12.348;2024-01-16T07:44:08;9.23;;;2.57;;
18190;SDS011;47004;51.366;12.348;2024-01-16T07:46:10;9.57;;;2.23;;
18190;SDS011;47004;51.366;12.348;2024-01-16T07:48:12;12.33;;;3.23;;
18190;SDS011;47004;51.366;12.348;2024-01-16T07:50:17;6.17;;;2.57;;
18190;SDS011;47004;51.366;12.348;2024-01-16T07:52:19;12.67;;;3.07;;
18190;SDS011;47004;51.366;12.348;2024-01-16T07:54:21;11.50;;;3.30;;
18190;SDS011;47004;51.366;12.348;2024-01-16T07:56:24;8.60;;;3.53;;
18190;SDS011;47004;51.366;12.348;2024-01-16T07:58:26;10.37;;;4.10;;
18190;SDS011;47004;51.366;12.348;2024-01-16T08:00:28;11.27;;;4.47;;
18190;SDS011;47004;51.366;12.348;2024-01-16T08:02:31;15.67;;;4.10;;
18190;SDS011;47004;51.366;12.348;2024-01-16T08:04:34;12.43;;;4.33;;
18190;SDS011;47004;51.366;12.348;2024-01-16T08:06:37;9.30;;;3.97;;
18190;SDS011;47004;51.366;12.348;2024-01-16T08:08:39;12.23;;;4.37;;
18190;SDS011;47004;51.366;12.348;2024-01-16T08:10:41;9.50;;;4.17;;
18190;SDS011;47004;51.366;12.348;2024-01-16T08:12:43;11.17;;;4.17;;
18190;SDS011;47004;51.366;12.348;2024-01-16T08:14:45;9.53;;;4.13;;
18190;SDS011;47004;51.366;12.348;2024-01-16T08:16:47;13.10;;;4.60;;
18190;SDS011;47004;51.366;12.348;2024-01-16T08:18:49;9.93;;;3.97;;
18190;SDS011;47004;51.366;12.348;2024-01-16T08:20:51;14.00;;;4.03;;
18190;SDS011;47004;51.366;12.348;2024-01-16T08:22:54;12.77;;;4.63;;
18190;SDS011;47004;51.366;12.348;2024-01-16T08:24:56;14.70;;;4.30;;
18190;SDS011;47004;51.366;12.348;2024-01-16T08:26:57;12.40;;;4.23;;
18190;SDS011;47004;51.366;12.348;2024-01-16T08:28:59;8.67;;;3.97;;
18190;SDS011;47004;51.366;12.348;2024-01-16T08:31:01;16.63;;;4.17;;
18190;SDS011;47004;51.366;12.348;2024-01-16T08:33:02;9.23;;;3.40;;
18190;SDS011;47004;51.366;12.348;2024-01-16T08:35:05;14.13;;;4.53;;
18190;SDS011;47004;51.366;12.348;2024-01-16T08:37:06;9.87;;;3.93;;
18190;SDS011;47004;51.366;12.348;2024-01-16T08:39:10;9.83;;;4.00;;
18190;SDS011;47004;51.366;12.348;2024-01-16T08:41:13;11.87;;;4.40;;
18190;SDS011;47004;51.366;12.348;2024-01-16T08:43:15;7.07;;;3.73;;
18190;SDS011;47004;51.366;12.348;2024-01-16T08:45:17;6.93;;;3.73;;
18190;SDS011;47004;51.366;12.348;2024-01-16T08:47:19;10.10;;;3.70;;
18190;SDS011;47004;51.366;12.348;2024-01-16T08:49:21;11.57;;;3.73;;
18190;SDS011;47004;51.366;12.348;2024-01-16T08:51:22;14.37;;;3.33;;
18190;SDS011;47004;51.366;12.348;2024-01-16T08:53:26;9.33;;;3.57;;
18190;SDS011;47004;51.366;12.348;2024-01-16T08:55:29;8.70;;;3.80;;
18190;SDS011;47004;51.366;12.348;2024-01-16T08:57:31;10.10;;;3.83;;
18190;SDS011;47004;51.366;12.348;2024-01-16T08:59:33;10.37;;;3.77;;
18190;SDS011;47004;51.366;12.348;2024-01-16T09:01:35;10.67;;;3.40;;
18190;SDS011;47004;51.366;12.348;2024-01-16T09:03:36;12.03;;;3.33;;
18190;SDS011;47004;51.366;12.348;2024-01-16T09:05:38;7.70;;;3.27;;
18190;SDS011;47004;51.366;12.348;2024-01-16T09:07:41;12.90;;;3.90;;
18190;SDS011;47004;51.366;12.348;2024-01-16T09:09:43;11.50;;;3.10;;
18190;SDS011;47004;51.366;12.348;2024-01-16T09:11:45;9.93;;;3.40;;
18190;SDS011;47004;51.366;12.348;2024-01-16T09:13:47;8.03;;;3.50;;
18190;SDS011;47004;51.366;12.348;2024-01-16T09:15:49;10.67;;;3.50;;
18190;SDS011;47004;51.366;12.348;2024-01-16T09:17:53;13.50;;;3.87;;
18190;SDS011;47004;51.366;12.348;2024-01-16T09:19:54;9.00;;;3.53;;
18190;SDS011;47004;51.366;12.348;2024-01-16T09:21:56;11.93;;;4.07;;
18190;SDS011;47004;51.366;12.348;2024-01-16T09:23:58;9.77;;;4.30;;
18190;SDS011;47004;51.366;12.348;2024-01-16T09:26:00;8.77;;;3.73;;
18190;SDS011;47004;51.366;12.348;2024-01-16T09:28:03;11.97;;;3.83;;
18190;SDS011;47004;51.366;12.348;2024-01-16T09:30:07;8.70;;;3.27;;
18190;SDS011;47004;51.366;12.348;2024-01-16T09:32:09;8.47;;;2.90;;
18190;SDS011;47004;51.366;12.348;2024-01-16T09:34:11;12.13;;;3.00;;
18190;SDS011;47004;51.366;12.348;2024-01-16T09:36:13;9.73;;;3.07;;
18190;SDS011;47004;51.366;12.348;2024-01-16T09:38:15;8.13;;;2.97;;
18190;SDS011;47004;51.366;12.348;2024-01-16T09:40:16;12.33;;;3.27;;
18190;SDS011;47004;51.366;12.348;2024-01-16T09:42:18;11.13;;;2.93;;
18190;SDS011;47004;51.366;12.348;2024-01-16T09:44:22;7.90;;;3.07;;
18190;SDS011;47004;51.366;12.348;2024-01-16T09:46:24;9.60;;;3.10;;
18190;SDS011;47004;51.366;12.348;2024-01-16T09:48:28;7.03;;;2.87;;
18190;SDS011;47004;51.366;12.348;2024-01-16T09:50:31;7.73;;;3.17;;
18190;SDS011;47004;51.366;12.348;2024-01-16T09:52:33;10.07;;;3.07;;
18190;SDS011;47004;51.366;12.348;2024-01-16T09:54:34;8.03;;;3.20;;
18190;SDS011;47004;51.366;12.348;2024-01-16T09:56:39;9.20;;;3.33;;
18190;SDS011;47004;51.366;12.348;2024-01-16T09:58:48;10.13;;;2.60;;
18190;SDS011;47004;51.366;12.348;2024-01-16T10:00:51;10.70;;;3.00;;
18190;SDS011;47004;51.366;12.348;2024-01-16T10:02:53;10.67;;;3.63;;
18190;SDS011;47004;51.366;12.348;2024-01-16T10:04:58;11.10;;;3.60;;
18190;SDS011;47004;51.366;12.348;2024-01-16T10:07:01;10.97;;;3.13;;
18190;SDS011;47004;51.366;12.348;2024-01-16T10:09:05;11.97;;;3.10;;
18190;SDS011;47004;51.366;12.348;2024-01-16T10:11:07;8.23;;;2.60;;
18190;SDS011;47004;51.366;12.348;2024-01-16T10:13:09;9.87;;;2.80;;
18190;SDS011;47004;51.366;12.348;2024-01-16T10:15:13;5.90;;;2.53;;
18190;SDS011;47004;51.366;12.348;2024-01-16T10:17:18;8.73;;;3.17;;
18190;SDS011;47004;51.366;12.348;2024-01-16T10:19:20;9.80;;;3.07;;
18190;SDS011;47004;51.366;12.348;2024-01-16T10:21:22;11.10;;;2.93;;
18190;SDS011;47004;51.366;12.348;2024-01-16T10:23:30;4.93;;;2.67;;
18190;SDS011;47004;51.366;12.348;2024-01-16T10:25:32;7.73;;;3.40;;
18190;SDS011;47004;51.366;12.348;2024-01-16T10:27:38;8.50;;;3.47;;
18190;SDS011;47004;51.366;12.348;2024-01-16T10:29:45;10.43;;;3.03;;
18190;SDS011;47004;51.366;12.348;2024-01-16T10:31:57;10.43;;;3.53;;
18190;SDS011;47004;51.366;12.348;2024-01-16T10:34:00;6.20;;;3.03;;
18190;SDS011;47004;51.366;12.348;2024-01-16T10:36:07;7.90;;;3.07;;
18190;SDS011;47004;51.366;12.348;2024-01-16T10:38:19;9.87;;;2.80;;
18190;SDS011;47004;51.366;12.348;2024-01-16T10:40:23;6.67;;;2.63;;
18190;SDS011;47004;51.366;12.348;2024-01-16T10:42:26;7.97;;;2.77;;
18190;SDS011;47004;51.366;12.348;2024-01-16T10:44:30;9.63;;;2.90;;
18190;SDS011;47004;51.366;12.348;2024-01-16T10:46:32;6.83;;;2.77;;
18190;SDS011;47004;51.366;12.348;2024-01-16T10:48:35;8.80;;;2.67;;
18190;SDS011;47004;51.366;12.348;2024-01-16T10:50:39;7.20;;;3.17;;
18190;SDS011;47004;51.366;12.348;2024-01-16T10:52:44;11.03;;;2.97;;
18190;SDS011;47004;51.366;12.348;2024-01-16T10:54:49;6.53;;;2.13;;
18190;SDS011;47004;51.366;12.348;2024-01-16T10:56:50;10.20;;;2.37;;
18190;SDS011;47004;51.366;12.348;2024-01-16T10:58:55;4.83;;;2.37;;
18190;SDS011;47004;51.366;12.348;2024-01-16T11:01:07;7.27;;;2.43;;
18190;SDS011;47004;51.366;12.348;2024-01-16T11:03:11;6.93;;;2.33;;
18190;SDS011;47004;51.366;12.348;2024-01-16T11:05:19;7.90;;;2.40;;
18190;SDS011;47004;51.366;12.348;2024-01-16T11:07:24;6.53;;;2.43;;
18190;SDS011;47004;51.366;12.348;2024-01-16T11:09:27;4.87;;;2.13;;
18190;SDS011;47004;51.366;12.348;2024-01-16T11:11:30;7.10;;;2.60;;
18190;SDS011;47004;51.366;12.348;2024-01-16T11:13:35;8.53;;;2.63;;
18190;SDS011;47004;51.366;12.348;2024-01-16T11:15:38;6.67;;;2.20;;
18190;SDS011;47004;51.366;12.348;2024-01-16T11:17:43;10.10;;;2.70;;
18190;SDS011;47004;51.366;12.348;2024-01-16T11:19:46;7.70;;;2.57;;
18190;SDS011;47004;51.366;12.348;2024-01-16T11:21:48;7.73;;;2.80;;
18190;SDS011;47004;51.366;12.348;2024-01-16T11:23:52;6.87;;;2.63;;
18190;SDS011;47004;51.366;12.348;2024-01-16T11:25:54;5.53;;;2.60;;
18190;SDS011;47004;51.366;12.348;2024-01-16T11:27:55;5.00;;;2.33;;
18190;SDS011;47004;51.366;12.348;2024-01-16T11:30:09;9.83;;;2.90;;
18190;SDS011;47004;51.366;12.348;2024-01-16T11:32:13;6.13;;;2.87;;
18190;SDS011;47004;51.366;12.348;2024-01-16T11:34:52;7.57;;;2.77;;
18190;SDS011;47004;51.366;12.348;2024-01-16T11:36:56;6.47;;;2.50;;
18190;SDS011;47004;51.366;12.348;2024-01-16T11:38:59;7.80;;;2.63;;
18190;SDS011;47004;51.366;12.348;2024-01-16T11:41:00;6.20;;;2.80;;
18190;SDS011;47004;51.366;12.348;2024-01-16T11:45:50;8.10;;;2.60;;
18190;SDS011;47004;51.366;12.348;2024-01-16T11:47:58;6.83;;;2.63;;
18190;SDS011;47004;51.366;12.348;2024-01-16T11:50:11;7.00;;;2.83;;
18190;SDS011;47004;51.366;12.348;2024-01-16T11:52:42;5.93;;;2.63;;
18190;SDS011;47004;51.366;12.348;2024-01-16T11:54:47;7.67;;;3.00;;
18190;SDS011;47004;51.366;12.348;2024-01-16T11:59:42;11.10;;;3.43;;
18190;SDS011;47004;51.366;12.348;2024-01-16T12:01:58;13.30;;;3.53;;
18190;SDS011;47004;51.366;12.348;2024-01-16T12:04:04;8.13;;;3.40;;
18190;SDS011;47004;51.366;12.348;2024-01-16T12:06:06;7.77;;;3.17;;
18190;SDS011;47004;51.366;12.348;2024-01-16T12:08:09;10.23;;;4.10;;
18190;SDS011;47004;51.366;12.348;2024-01-16T12:10:12;6.90;;;3.43;;
18190;SDS011;47004;51.366;12.348;2024-01-16T12:12:14;9.07;;;3.80;;
18190;SDS011;47004;51.366;12.348;2024-01-16T12:14:18;8.37;;;4.03;;